Time;durP1;ratioP1;P1;durP2;ratioP2;P2;SDS_P1;SDS_P2;PMS_P1;PMS_P2;Temp;Humidity;BMP_temperature;BMP_pressure;BME280_temperature;BME280_humidity;BME280_pressure;Samples;Min_cycle;Max_cycle;Signal;HPM_P1;HPM_P2
2022/04/27 00:01:01;;;;;;;19.17;12.55;;;;;;;;;;5070960;28;20063;-71
2022/04/27 00:04:06;;;;;;;21.52;12.60;;;;;;;;;;5070918;28;20043;-71
2022/04/27 00:07:10;;;;;;;27.20;11.65;;;;;;;;;;5070695;28;20055;-71
2022/04/27 00:10:15;;;;;;;22.20;11.48;;;;;;;;;;5070588;28;20507;-71
2022/04/27 00:13:19;;;;;;;18.08;11.35;;;;;;;;;;5072151;28;20047;-71
2022/04/27 00:16:23;;;;;;;15.48;11.20;;;;;;;;;;5075052;28;20056;-71
2022/04/27 00:19:28;;;;;;;17.23;10.35;;;;;;;;;;5074869;28;20035;-71
2022/04/27 00:22:32;;;;;;;19.65;11.23;;;;;;;;;;5075041;28;20052;-71
2022/04/27 00:25:37;;;;;;;20.35;11.35;;;;;;;;;;5074211;28;20055;-71
2022/04/27 00:28:41;;;;;;;18.55;11.27;;;;;;;;;;5074144;28;20047;-71
2022/04/27 00:31:45;;;;;;;20.58;12.70;;;;;;;;;;5074571;28;20043;-71
2022/04/27 00:34:50;;;;;;;19.90;12.00;;;;;;;;;;5073802;28;20512;-71
2022/04/27 00:37:54;;;;;;;18.98;10.23;;;;;;;;;;5074788;28;20047;-71
2022/04/27 00:40:58;;;;;;;17.48;11.05;;;;;;;;;;5074620;28;20047;-71
2022/04/27 00:44:03;;;;;;;15.43;9.88;;;;;;;;;;5074620;28;20036;-71
2022/04/27 00:47:07;;;;;;;20.58;9.70;;;;;;;;;;5074544;28;20047;-71
2022/04/27 00:50:11;;;;;;;15.30;9.40;;;;;;;;;;5062118;28;20043;-71
2022/04/27 00:53:16;;;;;;;16.92;9.32;;;;;;;;;;5074303;28;20052;-71
2022/04/27 00:56:21;;;;;;;15.50;9.90;;;;;;;;;;5061797;28;20416;-71
2022/04/27 00:59:26;;;;;;;15.95;9.90;;;;;;;;;;5073346;28;20039;-71
2022/04/27 01:02:30;;;;;;;16.40;9.25;;;;;;;;;;5074299;28;20106;-71
2022/04/27 01:05:34;;;;;;;17.05;9.52;;;;;;;;;;5061877;28;20527;-71
2022/04/27 01:08:39;;;;;;;14.15;8.93;;;;;;;;;;5072760;28;20051;-71
2022/04/27 01:11:43;;;;;;;15.13;9.27;;;;;;;;;;5072970;28;20049;-71
2022/04/27 01:14:48;;;;;;;13.77;9.45;;;;;;;;;;5073628;28;20059;-71
2022/04/27 01:17:53;;;;;;;18.40;9.98;;;;;;;;;;5072917;28;20051;-71
2022/04/27 01:20:58;;;;;;;23.48;9.90;;;;;;;;;;5061191;28;20043;-71
2022/04/27 01:24:02;;;;;;;15.68;9.68;;;;;;;;;;5072483;28;20041;-71
2022/04/27 01:27:07;;;;;;;14.77;9.32;;;;;;;;;;5072774;28;20059;-71
2022/04/27 01:30:11;;;;;;;15.30;9.55;;;;;;;;;;5072534;28;20051;-71
2022/04/27 01:33:15;;;;;;;18.02;9.10;;;;;;;;;;5072434;28;20044;-71
2022/04/27 01:36:19;;;;;;;17.02;9.30;;;;;;;;;;5073459;28;20048;-71
2022/04/27 01:39:24;;;;;;;17.25;9.50;;;;;;;;;;5073437;28;20055;-71
2022/04/27 01:42:28;;;;;;;18.50;9.60;;;;;;;;;;5073410;28;20126;-71
2022/04/27 01:45:32;;;;;;;16.33;9.52;;;;;;;;;;5072362;28;20051;-71
2022/04/27 01:48:36;;;;;;;18.45;9.82;;;;;;;;;;5072459;28;20047;-71
2022/04/27 01:55:04;;;;;;;15.10;8.90;;;;;;;;;;5060783;28;20059;-71
2022/04/27 01:58:10;;;;;;;18.85;9.45;;;;;;;;;;5072268;28;20111;-71
2022/04/27 02:01:16;;;;;;;18.15;9.57;;;;;;;;;;5072284;28;20067;-70
2022/04/27 02:04:20;;;;;;;14.45;8.95;;;;;;;;;;5073213;28;20419;-70
2022/04/27 02:07:25;;;;;;;18.42;10.18;;;;;;;;;;5072814;28;20401;-70
2022/04/27 02:10:30;;;;;;;17.40;10.23;;;;;;;;;;5072138;28;20059;-71
2022/04/27 02:13:35;;;;;;;17.30;9.48;;;;;;;;;;5072003;28;20051;-70
2022/04/27 02:16:40;;;;;;;16.38;9.38;;;;;;;;;;5071920;28;20075;-71
2022/04/27 02:19:55;;;;;;;14.95;9.40;;;;;;;;;;5071831;28;20513;-70
2022/04/27 02:22:59;;;;;;;13.88;9.35;;;;;;;;;;5072013;28;20059;-70
2022/04/27 02:26:03;;;;;;;13.57;8.82;;;;;;;;;;5071800;28;20507;-71
2022/04/27 02:29:08;;;;;;;15.43;10.00;;;;;;;;;;5072771;28;20384;-70
2022/04/27 02:32:15;;;;;;;15.68;9.48;;;;;;;;;;5060283;28;20081;-70
2022/04/27 02:35:21;;;;;;;14.98;8.32;;;;;;;;;;5071313;28;20056;-71
2022/04/27 02:38:29;;;;;;;15.82;8.20;;;;;;;;;;5071744;28;20057;-71
2022/04/27 02:41:34;;;;;;;11.23;7.20;;;;;;;;;;5071577;28;20056;-71
2022/04/27 02:44:40;;;;;;;12.57;7.10;;;;;;;;;;5071552;28;20106;-71
2022/04/27 02:47:44;;;;;;;17.45;7.75;;;;;;;;;;5071476;28;20039;-71
2022/04/27 02:54:11;;;;;;;14.57;7.85;;;;;;;;;;5071182;28;20051;-71
2022/04/27 02:57:16;;;;;;;14.60;8.23;;;;;;;;;;5059585;28;20515;-71
2022/04/27 03:00:20;;;;;;;12.50;7.18;;;;;;;;;;5071279;28;20056;-70
2022/04/27 03:03:24;;;;;;;15.32;8.23;;;;;;;;;;5070946;28;20048;-70
2022/04/27 03:06:30;;;;;;;14.25;9.02;;;;;;;;;;5070728;28;20604;-70
2022/04/27 03:09:35;;;;;;;11.77;7.55;;;;;;;;;;5070852;28;20052;-71
2022/04/27 03:12:39;;;;;;;15.13;7.47;;;;;;;;;;5070782;28;20047;-71
2022/04/27 03:15:45;;;;;;;11.73;7.60;;;;;;;;;;5070674;28;20044;-71
2022/04/27 03:18:51;;;;;;;13.15;8.02;;;;;;;;;;5070951;28;20047;-71
2022/04/27 03:21:55;;;;;;;14.90;8.38;;;;;;;;;;5070827;28;20060;-70
2022/04/27 03:25:00;;;;;;;12.88;7.22;;;;;;;;;;5070938;28;20317;-71
2022/04/27 03:28:06;;;;;;;12.10;7.63;;;;;;;;;;5070772;28;20056;-71
2022/04/27 03:31:11;;;;;;;14.48;7.35;;;;;;;;;;5070522;28;20507;-70
2022/04/27 03:34:16;;;;;;;13.45;6.90;;;;;;;;;;5059150;28;20051;-71
2022/04/27 03:37:21;;;;;;;15.93;7.65;;;;;;;;;;5070459;28;20055;-70
2022/04/27 03:40:28;;;;;;;13.40;7.28;;;;;;;;;;5070445;28;20039;-70
2022/04/27 03:43:33;;;;;;;11.27;7.38;;;;;;;;;;5058886;28;20063;-70
2022/04/27 03:46:37;;;;;;;16.23;8.20;;;;;;;;;;5070494;28;20507;-70
2022/04/27 03:49:41;;;;;;;13.95;7.32;;;;;;;;;;5069912;28;20052;-70
2022/04/27 03:52:46;;;;;;;11.93;7.82;;;;;;;;;;5070836;28;20039;-70
2022/04/27 03:55:50;;;;;;;12.13;7.22;;;;;;;;;;5069908;28;20218;-70
2022/04/27 03:58:54;;;;;;;17.85;8.10;;;;;;;;;;5070388;28;20043;-71
2022/04/27 04:01:59;;;;;;;15.82;7.68;;;;;;;;;;5070381;28;20047;-71
2022/04/27 04:05:05;;;;;;;15.95;7.32;;;;;;;;;;5070128;28;20388;-70
2022/04/27 04:08:10;;;;;;;12.07;7.38;;;;;;;;;;5070015;28;20055;-70
2022/04/27 04:11:14;;;;;;;18.63;7.05;;;;;;;;;;5069996;28;20044;-70
2022/04/27 04:14:39;;;;;;;12.27;6.63;;;;;;;;;;5070232;28;20052;-70
2022/04/27 04:17:53;;;;;;;13.98;8.13;;;;;;;;;;5070114;28;20051;-70
2022/04/27 04:21:11;;;;;;;15.20;7.90;;;;;;;;;;5058286;28;20484;-71
2022/04/27 04:24:32;;;;;;;15.75;7.95;;;;;;;;;;5060918;28;20043;-71
2022/04/27 04:31:05;;;;;;;16.52;8.00;;;;;;;;;;5069957;28;20048;-71
2022/04/27 04:34:27;;;;;;;12.90;8.52;;;;;;;;;;5069982;28;20044;-71
2022/04/27 04:37:32;;;;;;;15.73;8.15;;;;;;;;;;5069653;28;20060;-70
2022/04/27 04:40:37;;;;;;;18.20;8.68;;;;;;;;;;5069500;28;20100;-70
2022/04/27 04:43:42;;;;;;;20.73;9.90;;;;;;;;;;5069980;28;20055;-71
2022/04/27 04:46:46;;;;;;;23.67;8.88;;;;;;;;;;5069879;28;20040;-71
2022/04/27 04:50:01;;;;;;;21.75;9.75;;;;;;;;;;5069523;28;20059;-71
2022/04/27 04:53:23;;;;;;;32.50;10.63;;;;;;;;;;5070051;28;20051;-71
2022/04/27 04:56:41;;;;;;;26.52;9.85;;;;;;;;;;5069385;28;20067;-71
2022/04/27 05:00:20;;;;;;;20.00;10.35;;;;;;;;;;5072899;28;20418;-71
2022/04/27 05:03:52;;;;;;;30.10;10.68;;;;;;;;;;5073134;28;20044;-71
2022/04/27 05:07:32;;;;;;;20.75;9.93;;;;;;;;;;5071294;28;20144;-71
2022/04/27 05:10:55;;;;;;;23.73;10.45;;;;;;;;;;5073783;28;20503;-71
2022/04/27 05:14:02;;;;;;;19.92;10.50;;;;;;;;;;5073931;28;20496;-71
2022/04/27 05:17:34;;;;;;;17.98;10.10;;;;;;;;;;5072927;28;20052;-70
2022/04/27 05:20:59;;;;;;;20.40;10.50;;;;;;;;;;5068197;28;20055;-71
2022/04/27 05:24:23;;;;;;;24.42;11.02;;;;;;;;;;5073602;28;20500;-71
2022/04/27 05:27:57;;;;;;;24.75;11.90;;;;;;;;;;5072500;28;20048;-71
2022/04/27 05:31:55;;;;;;;23.25;11.10;;;;;;;;;;5073690;28;20052;-71
2022/04/27 05:35:20;;;;;;;19.00;11.23;;;;;;;;;;5072527;28;20056;-71
2022/04/27 05:38:50;;;;;;;17.85;10.40;;;;;;;;;;5072590;28;20039;-71
2022/04/27 05:42:26;;;;;;;20.20;10.52;;;;;;;;;;5072381;28;20047;-72
2022/04/27 05:45:50;;;;;;;18.17;10.35;;;;;;;;;;5072174;28;20040;-71
2022/04/27 05:49:06;;;;;;;15.30;9.63;;;;;;;;;;5072109;28;20051;-71
2022/04/27 05:52:49;;;;;;;16.75;9.38;;;;;;;;;;5072082;28;20048;-71
2022/04/27 05:56:15;;;;;;;16.85;10.02;;;;;;;;;;5072735;28;20047;-70
2022/04/27 05:59:54;;;;;;;23.13;8.98;;;;;;;;;;5044839;28;20052;-70
2022/04/27 06:03:18;;;;;;;21.52;9.82;;;;;;;;;;5072862;28;20505;-70
2022/04/27 06:06:26;;;;;;;16.88;7.55;;;;;;;;;;5072084;28;20047;-72
2022/04/27 06:09:31;;;;;;;24.63;8.65;;;;;;;;;;5072063;28;20516;-73
2022/04/27 06:12:44;;;;;;;22.33;8.02;;;;;;;;;;5059906;28;20194;-73
2022/04/27 06:16:07;;;;;;;21.23;8.60;;;;;;;;;;5072366;28;20051;-73
2022/04/27 06:19:29;;;;;;;24.73;10.20;;;;;;;;;;5071423;28;20040;-71
2022/04/27 06:22:35;;;;;;;25.55;10.35;;;;;;;;;;5060087;28;20483;-68
2022/04/27 06:25:41;;;;;;;31.20;11.43;;;;;;;;;;5071758;28;20051;-68
2022/04/27 06:28:53;;;;;;;44.97;13.43;;;;;;;;;;5071499;28;20040;-71
2022/04/27 06:31:57;;;;;;;26.80;11.77;;;;;;;;;;5071240;28;20515;-68
2022/04/27 06:35:02;;;;;;;28.92;15.00;;;;;;;;;;5071256;28;20063;-72
2022/04/27 06:38:07;;;;;;;22.48;11.55;;;;;;;;;;5071194;28;20064;-71
2022/04/27 06:41:11;;;;;;;36.03;13.90;;;;;;;;;;5071126;28;20119;-72
2022/04/27 06:44:36;;;;;;;30.77;12.57;;;;;;;;;;5062732;28;20048;-72
2022/04/27 06:47:58;;;;;;;27.75;11.25;;;;;;;;;;5071730;28;20051;-76
2022/04/27 06:51:21;;;;;;;25.05;10.98;;;;;;;;;;5071430;28;20527;-70
2022/04/27 06:54:44;;;;;;;21.02;10.15;;;;;;;;;;5071481;28;20404;-72
2022/04/27 06:58:07;;;;;;;29.02;10.95;;;;;;;;;;5071608;28;20052;-72
2022/04/27 07:01:13;;;;;;;25.45;10.07;;;;;;;;;;5071992;28;20056;-72
2022/04/27 07:04:19;;;;;;;19.00;9.23;;;;;;;;;;5070988;28;20039;-74
2022/04/27 07:07:24;;;;;;;17.05;7.30;;;;;;;;;;5070338;28;20060;-71
2022/04/27 07:10:36;;;;;;;22.88;7.53;;;;;;;;;;5071211;28;20301;-76
2022/04/27 07:13:40;;;;;;;12.88;6.13;;;;;;;;;;5070716;28;20060;-73
2022/04/27 07:16:44;;;;;;;16.73;6.68;;;;;;;;;;5071300;28;20052;-73
2022/04/27 07:19:49;;;;;;;13.85;7.00;;;;;;;;;;5071605;28;20047;-74
2022/04/27 07:22:54;;;;;;;11.27;5.43;;;;;;;;;;5070325;28;20051;-73
2022/04/27 07:25:58;;;;;;;45.53;6.93;;;;;;;;;;5071363;28;20429;-73
2022/04/27 07:29:03;;;;;;;13.68;5.07;;;;;;;;;;5070835;28;20043;-76
2022/04/27 07:32:07;;;;;;;16.77;5.55;;;;;;;;;;5071235;28;20070;-74
2022/04/27 07:35:12;;;;;;;12.35;5.00;;;;;;;;;;5070229;28;20047;-71
2022/04/27 07:38:16;;;;;;;8.02;4.43;;;;;;;;;;5071191;28;20048;-72
2022/04/27 07:41:20;;;;;;;8.90;4.03;;;;;;;;;;5070976;28;20048;-71
2022/04/27 07:44:25;;;;;;;16.38;5.20;;;;;;;;;;5071039;28;20338;-71
2022/04/27 07:47:37;;;;;;;15.00;4.40;;;;;;;;;;5070936;28;20059;-73
2022/04/27 07:50:41;;;;;;;15.38;4.88;;;;;;;;;;5069833;28;20035;-70
2022/04/27 07:53:46;;;;;;;26.83;6.43;;;;;;;;;;5070787;28;20043;-67
2022/04/27 07:56:50;;;;;;;23.95;6.47;;;;;;;;;;5070642;28;20053;-68
2022/04/27 07:59:54;;;;;;;22.25;6.75;;;;;;;;;;5070556;28;20052;-69
2022/04/27 08:02:58;;;;;;;12.07;5.15;;;;;;;;;;5070730;28;20067;-69
2022/04/27 08:06:04;;;;;;;13.60;4.75;;;;;;;;;;5070585;28;20052;-71
2022/04/27 08:09:08;;;;;;;13.60;5.57;;;;;;;;;;5070708;28;20055;-72
2022/04/27 08:12:12;;;;;;;28.25;5.63;;;;;;;;;;5070637;28;20047;-70
2022/04/27 08:15:18;;;;;;;21.05;5.65;;;;;;;;;;5070688;28;20135;-71
2022/04/27 08:18:23;;;;;;;15.95;4.88;;;;;;;;;;5070738;28;20051;-70
2022/04/27 08:21:27;;;;;;;23.98;8.90;;;;;;;;;;5070784;28;20047;-71
2022/04/27 08:24:33;;;;;;;30.33;5.80;;;;;;;;;;5070460;28;20047;-70
2022/04/27 08:27:37;;;;;;;12.52;4.93;;;;;;;;;;5070633;28;20048;-70
2022/04/27 08:30:43;;;;;;;20.98;4.75;;;;;;;;;;5070403;28;20071;-69
2022/04/27 08:33:47;;;;;;;12.18;4.80;;;;;;;;;;5070648;28;20048;-69
2022/04/27 08:36:51;;;;;;;17.63;6.22;;;;;;;;;;5074309;28;20055;-72
2022/04/27 08:39:56;;;;;;;11.52;4.82;;;;;;;;;;5074357;28;20048;-68
2022/04/27 08:43:01;;;;;;;11.68;4.75;;;;;;;;;;5074087;28;20050;-72
2022/04/27 08:46:06;;;;;;;15.40;4.00;;;;;;;;;;5074012;28;20507;-74
2022/04/27 08:49:10;;;;;;;7.90;2.88;;;;;;;;;;5074001;28;20581;-73
2022/04/27 08:52:15;;;;;;;13.43;3.25;;;;;;;;;;5074121;28;20357;-71
2022/04/27 08:55:19;;;;;;;14.98;4.15;;;;;;;;;;5074258;28;20043;-72
2022/04/27 08:58:24;;;;;;;6.50;2.70;;;;;;;;;;5073993;28;20041;-73
2022/04/27 09:01:29;;;;;;;9.32;2.47;;;;;;;;;;5074251;28;20036;-73
2022/04/27 09:04:33;;;;;;;9.93;3.40;;;;;;;;;;5073145;28;20052;-72
2022/04/27 09:07:50;;;;;;;7.78;2.67;;;;;;;;;;5071506;28;20052;-72
2022/04/27 09:11:11;;;;;;;5.35;2.10;;;;;;;;;;5074235;28;20461;-72
2022/04/27 09:14:16;;;;;;;5.57;1.92;;;;;;;;;;5073393;28;20036;-71
2022/04/27 09:20:48;;;;;;;3.67;1.60;;;;;;;;;;5073203;28;20472;-72
2022/04/27 09:24:01;;;;;;;9.93;2.53;;;;;;;;;;5073735;28;20473;-72
2022/04/27 09:27:11;;;;;;;4.15;2.00;;;;;;;;;;5073667;28;20040;-73
2022/04/27 09:30:16;;;;;;;7.43;1.93;;;;;;;;;;5073633;28;20473;-74
2022/04/27 09:33:33;;;;;;;4.10;1.60;;;;;;;;;;5073565;28;20032;-72
2022/04/27 09:36:38;;;;;;;5.55;1.80;;;;;;;;;;5073169;28;20308;-72
2022/04/27 09:39:43;;;;;;;2.90;1.52;;;;;;;;;;5073015;28;20036;-72
2022/04/27 09:42:47;;;;;;;4.82;2.00;;;;;;;;;;5073497;28;20040;-73
2022/04/27 09:45:51;;;;;;;5.00;2.47;;;;;;;;;;5072496;28;20040;-71
2022/04/27 09:49:07;;;;;;;5.72;1.73;;;;;;;;;;5073212;28;20044;-72
2022/04/27 09:52:15;;;;;;;8.65;2.05;;;;;;;;;;5073014;28;20045;-72
2022/04/27 09:55:19;;;;;;;7.40;2.00;;;;;;;;;;5071539;28;20389;-72
2022/04/27 09:58:26;;;;;;;4.53;1.92;;;;;;;;;;5070948;28;20041;-71
2022/04/27 10:01:35;;;;;;;5.28;2.33;;;;;;;;;;5070918;28;20028;-73
2022/04/27 10:04:40;;;;;;;13.68;2.85;;;;;;;;;;5070759;28;20040;-71
2022/04/27 10:07:45;;;;;;;7.47;1.90;;;;;;;;;;5070573;28;20048;-71
2022/04/27 10:10:49;;;;;;;10.55;4.35;;;;;;;;;;5072135;28;20120;-70
2022/04/27 10:13:56;;;;;;;15.40;5.60;;;;;;;;;;5072531;28;20052;-69
2022/04/27 10:17:01;;;;;;;8.23;4.50;;;;;;;;;;5072482;28;20135;-70
2022/04/27 10:20:25;;;;;;;14.43;4.78;;;;;;;;;;5072664;28;20041;-70
2022/04/27 10:23:32;;;;;;;5.75;4.00;;;;;;;;;;5072720;28;20039;-70
2022/04/27 10:26:36;;;;;;;18.45;5.13;;;;;;;;;;5072555;28;20036;-69
2022/04/27 10:29:40;;;;;;;13.38;5.80;;;;;;;;;;5071319;28;20051;-69
2022/04/27 10:32:48;;;;;;;10.32;4.72;;;;;;;;;;5072367;28;20048;-69
2022/04/27 10:35:52;;;;;;;10.55;4.90;;;;;;;;;;5072221;28;20407;-68
2022/04/27 10:39:12;;;;;;;11.70;5.43;;;;;;;;;;5072199;28;20680;-69
2022/04/27 10:42:23;;;;;;;10.68;5.18;;;;;;;;;;5072399;28;20047;-71
2022/04/27 10:45:28;;;;;;;12.10;5.90;;;;;;;;;;5071933;28;20061;-69
2022/04/27 10:48:48;;;;;;;12.52;5.78;;;;;;;;;;5072367;28;20675;-68
2022/04/27 10:52:03;;;;;;;16.70;6.18;;;;;;;;;;5071837;28;20400;-69
2022/04/27 10:55:07;;;;;;;11.32;4.97;;;;;;;;;;5071760;28;20047;-68
2022/04/27 10:58:12;;;;;;;12.30;5.40;;;;;;;;;;5071023;28;20051;-68
2022/04/27 11:01:20;;;;;;;20.20;7.22;;;;;;;;;;5072247;28;20309;-69
2022/04/27 11:04:33;;;;;;;13.75;5.90;;;;;;;;;;5071783;28;20051;-68
2022/04/27 11:07:53;;;;;;;13.55;6.28;;;;;;;;;;5071651;28;20051;-67
2022/04/27 11:11:02;;;;;;;9.63;5.30;;;;;;;;;;5070664;28;20044;-68
2022/04/27 11:14:09;;;;;;;14.50;5.93;;;;;;;;;;5071750;28;20040;-68
2022/04/27 11:17:25;;;;;;;14.77;5.78;;;;;;;;;;5071529;28;20056;-67
2022/04/27 11:20:30;;;;;;;11.63;6.60;;;;;;;;;;5070693;28;20595;-67
2022/04/27 11:23:34;;;;;;;18.00;6.32;;;;;;;;;;5071462;28;20051;-68
2022/04/27 11:26:42;;;;;;;16.67;5.90;;;;;;;;;;5071257;28;20048;-67
2022/04/27 11:29:46;;;;;;;16.40;6.43;;;;;;;;;;5071394;28;20047;-67
2022/04/27 11:32:52;;;;;;;9.60;5.38;;;;;;;;;;5071479;28;20051;-67
2022/04/27 11:35:56;;;;;;;13.57;5.47;;;;;;;;;;5071387;28;20048;-67
2022/04/27 11:39:01;;;;;;;11.18;5.32;;;;;;;;;;5071061;28;20043;-67
2022/04/27 11:42:05;;;;;;;10.27;4.70;;;;;;;;;;5071222;28;20064;-67
2022/04/27 11:45:11;;;;;;;9.70;4.53;;;;;;;;;;5070958;28;20515;-67
2022/04/27 11:48:18;;;;;;;15.50;5.28;;;;;;;;;;5071068;28;20045;-67
2022/04/27 11:51:22;;;;;;;9.18;3.92;;;;;;;;;;5071348;28;20043;-68
2022/04/27 11:54:31;;;;;;;8.55;5.07;;;;;;;;;;5070682;28;20156;-67
2022/04/27 11:57:36;;;;;;;15.23;4.95;;;;;;;;;;5070814;28;20045;-70
2022/04/27 12:00:40;;;;;;;9.40;4.88;;;;;;;;;;5069826;28;20036;-67
2022/04/27 12:03:44;;;;;;;7.93;4.30;;;;;;;;;;5071198;28;20045;-69
2022/04/27 12:06:49;;;;;;;9.35;4.57;;;;;;;;;;5070710;28;20369;-67
2022/04/27 12:10:00;;;;;;;14.45;4.20;;;;;;;;;;5070018;28;20052;-68
2022/04/27 12:13:05;;;;;;;16.15;6.43;;;;;;;;;;5070605;28;20060;-67
2022/04/27 12:16:10;;;;;;;11.63;5.40;;;;;;;;;;5070631;28;20059;-67
2022/04/27 12:19:14;;;;;;;9.95;4.43;;;;;;;;;;5070509;28;20043;-67
2022/04/27 12:22:20;;;;;;;6.50;3.75;;;;;;;;;;5069544;28;20045;-67
2022/04/27 12:25:39;;;;;;;7.93;3.80;;;;;;;;;;5070589;28;20469;-67
2022/04/27 12:28:49;;;;;;;10.63;4.43;;;;;;;;;;5070499;28;20036;-66
2022/04/27 12:31:57;;;;;;;10.82;4.32;;;;;;;;;;5069657;28;20044;-67
2022/04/27 12:38:32;;;;;;;6.75;3.42;;;;;;;;;;5069796;28;20044;-67
2022/04/27 12:41:41;;;;;;;6.70;3.60;;;;;;;;;;5070515;28;20045;-67
2022/04/27 12:44:46;;;;;;;9.82;4.20;;;;;;;;;;5070126;28;20262;-68
2022/04/27 12:47:50;;;;;;;11.68;4.70;;;;;;;;;;5070181;28;20045;-67
2022/04/27 12:50:55;;;;;;;6.55;3.80;;;;;;;;;;5069830;28;20063;-67
2022/04/27 12:53:59;;;;;;;9.77;5.30;;;;;;;;;;5069362;28;20048;-70
2022/04/27 12:57:03;;;;;;;16.48;5.43;;;;;;;;;;5069895;28;20053;-67
2022/04/27 13:00:09;;;;;;;9.50;4.40;;;;;;;;;;5070017;28;20044;-68
2022/04/27 13:03:14;;;;;;;10.90;4.38;;;;;;;;;;5070127;28;20040;-69
2022/04/27 13:06:18;;;;;;;9.13;4.13;;;;;;;;;;5070520;28;20055;-67
2022/04/27 13:12:45;;;;;;;14.25;3.80;;;;;;;;;;5070357;28;20052;-73
2022/04/27 13:15:50;;;;;;;13.70;4.28;;;;;;;;;;5070132;28;20046;-70
2022/04/27 13:18:55;;;;;;;10.88;3.42;;;;;;;;;;5070248;28;20051;-68
2022/04/27 13:21:59;;;;;;;5.65;3.20;;;;;;;;;;5072363;28;20047;-68
2022/04/27 13:25:04;;;;;;;5.70;3.42;;;;;;;;;;5073963;28;20041;-68
2022/04/27 13:28:10;;;;;;;7.70;3.38;;;;;;;;;;5073546;28;20040;-70
2022/04/27 13:31:14;;;;;;;6.93;3.80;;;;;;;;;;5073732;28;20215;-70
2022/04/27 13:34:19;;;;;;;9.15;4.28;;;;;;;;;;5072931;28;20036;-71
2022/04/27 13:37:23;;;;;;;9.35;4.32;;;;;;;;;;5073370;28;20044;-69
2022/04/27 13:40:28;;;;;;;6.03;3.30;;;;;;;;;;5073080;28;20032;-70
2022/04/27 13:43:32;;;;;;;11.80;4.20;;;;;;;;;;5073525;28;20032;-69
2022/04/27 13:46:37;;;;;;;16.80;4.43;;;;;;;;;;5073073;28;20047;-68
2022/04/27 13:49:41;;;;;;;9.95;4.60;;;;;;;;;;5073109;28;20052;-68
2022/04/27 13:52:45;;;;;;;8.13;3.90;;;;;;;;;;5072945;28;20041;-69
2022/04/27 13:55:50;;;;;;;9.25;3.50;;;;;;;;;;5072608;28;20393;-68
2022/04/27 13:58:55;;;;;;;16.60;4.28;;;;;;;;;;5072429;28;20044;-72
2022/04/27 14:02:02;;;;;;;8.65;3.95;;;;;;;;;;5072899;28;20059;-67
2022/04/27 14:05:08;;;;;;;19.23;5.63;;;;;;;;;;5072845;28;20036;-67
2022/04/27 14:08:12;;;;;;;8.95;4.07;;;;;;;;;;5072698;28;20052;-67
2022/04/27 14:14:40;;;;;;;11.05;4.22;;;;;;;;;;5072811;28;20037;-68
2022/04/27 14:21:07;;;;;;;7.40;3.25;;;;;;;;;;5072834;28;20051;-66
2022/04/27 14:24:12;;;;;;;5.60;3.58;;;;;;;;;;5072217;28;20040;-65
2022/04/27 14:27:17;;;;;;;11.02;8.30;;;;;;;;;;5071727;28;20040;-66
2022/04/27 14:30:21;;;;;;;7.25;3.67;;;;;;;;;;5072251;28;20071;-66
2022/04/27 14:33:25;;;;;;;14.95;3.30;;;;;;;;;;5071743;28;20037;-66
2022/04/27 14:36:29;;;;;;;6.15;3.17;;;;;;;;;;5072143;28;20055;-66
2022/04/27 14:39:34;;;;;;;9.25;3.00;;;;;;;;;;5072369;28;20044;-68
2022/04/27 14:42:39;;;;;;;7.15;2.80;;;;;;;;;;5072168;28;20044;-68
2022/04/27 14:45:43;;;;;;;6.03;2.85;;;;;;;;;;5071941;28;20045;-69
2022/04/27 14:48:47;;;;;;;4.10;2.50;;;;;;;;;;5072214;28;20039;-69
2022/04/27 14:51:52;;;;;;;4.63;2.30;;;;;;;;;;5071871;28;20049;-68
2022/04/27 14:54:56;;;;;;;5.05;2.28;;;;;;;;;;5071923;28;20040;-69
2022/04/27 14:58:01;;;;;;;7.43;2.22;;;;;;;;;;5071345;28;20052;-69
2022/04/27 15:01:05;;;;;;;14.90;2.50;;;;;;;;;;5071383;28;20389;-68
2022/04/27 15:04:10;;;;;;;7.25;2.13;;;;;;;;;;5071473;28;20063;-68
2022/04/27 15:07:14;;;;;;;9.57;2.38;;;;;;;;;;5071205;28;20044;-71
2022/04/27 15:10:18;;;;;;;3.78;1.90;;;;;;;;;;5070107;28;20045;-69
2022/04/27 15:13:23;;;;;;;6.05;2.40;;;;;;;;;;5071251;28;20040;-69
2022/04/27 15:16:28;;;;;;;4.85;2.35;;;;;;;;;;5071266;28;20048;-69
2022/04/27 15:19:35;;;;;;;16.52;2.83;;;;;;;;;;5071272;28;20052;-69
2022/04/27 15:22:42;;;;;;;3.95;2.55;;;;;;;;;;5070630;28;20055;-70
2022/04/27 15:25:46;;;;;;;5.25;2.70;;;;;;;;;;5071391;28;20052;-68
2022/04/27 15:28:51;;;;;;;14.65;2.85;;;;;;;;;;5071330;28;20036;-68
2022/04/27 15:31:55;;;;;;;6.47;2.75;;;;;;;;;;5071033;28;20056;-69
2022/04/27 15:35:00;;;;;;;4.55;2.47;;;;;;;;;;5070926;28;20036;-70
2022/04/27 15:38:06;;;;;;;7.90;3.17;;;;;;;;;;5070827;28;20052;-70
2022/04/27 15:41:10;;;;;;;10.80;4.10;;;;;;;;;;5070805;28;20036;-70
2022/04/27 15:44:15;;;;;;;8.07;2.70;;;;;;;;;;5070185;28;20471;-70
2022/04/27 15:47:19;;;;;;;4.95;2.58;;;;;;;;;;5071060;28;20032;-69
2022/04/27 15:50:23;;;;;;;12.02;2.40;;;;;;;;;;5070990;28;20044;-71
2022/04/27 15:53:28;;;;;;;8.63;2.45;;;;;;;;;;5070127;28;20047;-70
2022/04/27 15:56:33;;;;;;;8.18;1.90;;;;;;;;;;5071019;28;20040;-71
2022/04/27 15:59:38;;;;;;;4.72;2.03;;;;;;;;;;5070356;28;20385;-70
2022/04/27 16:02:43;;;;;;;6.47;2.30;;;;;;;;;;5070943;28;20040;-71
2022/04/27 16:05:47;;;;;;;9.05;3.20;;;;;;;;;;5070877;28;20044;-69
2022/04/27 16:08:51;;;;;;;11.68;3.22;;;;;;;;;;5070319;28;20052;-70
2022/04/27 16:11:56;;;;;;;10.73;2.95;;;;;;;;;;5070506;28;20051;-69
2022/04/27 16:15:00;;;;;;;12.32;3.30;;;;;;;;;;5069314;28;20413;-69
2022/04/27 16:18:04;;;;;;;12.88;3.20;;;;;;;;;;5069365;28;20527;-69
2022/04/27 16:24:32;;;;;;;6.15;3.20;;;;;;;;;;5069890;28;20044;-72
2022/04/27 16:27:36;;;;;;;9.02;3.30;;;;;;;;;;5069689;28;20037;-69
2022/04/27 16:30:41;;;;;;;7.60;2.88;;;;;;;;;;5070352;28;20041;-71
2022/04/27 16:33:45;;;;;;;11.20;4.43;;;;;;;;;;5069819;28;20036;-71
2022/04/27 16:36:50;;;;;;;13.57;3.53;;;;;;;;;;5070308;28;20047;-70
2022/04/27 16:39:54;;;;;;;20.08;4.90;;;;;;;;;;5070204;28;20051;-70
2022/04/27 16:42:58;;;;;;;11.98;3.70;;;;;;;;;;5070298;28;20107;-68
2022/04/27 16:46:03;;;;;;;14.10;3.38;;;;;;;;;;5070466;28;20396;-70
2022/04/27 16:49:07;;;;;;;11.18;3.33;;;;;;;;;;5069262;28;20495;-68
2022/04/27 16:52:12;;;;;;;8.10;3.10;;;;;;;;;;5069748;28;20401;-70
2022/04/27 16:55:16;;;;;;;11.85;3.08;;;;;;;;;;5071421;28;20037;-70
2022/04/27 16:58:22;;;;;;;22.88;3.85;;;;;;;;;;5072839;28;20067;-71
2022/04/27 17:01:26;;;;;;;11.63;3.53;;;;;;;;;;5073756;28;20139;-69
2022/04/27 17:04:30;;;;;;;11.35;3.55;;;;;;;;;;5070589;28;20043;-69
2022/04/27 17:07:35;;;;;;;12.50;3.70;;;;;;;;;;5071886;28;20079;-69
2022/04/27 17:10:39;;;;;;;10.40;2.65;;;;;;;;;;5072789;28;20043;-68
2022/04/27 17:13:43;;;;;;;14.15;3.03;;;;;;;;;;5072980;28;20048;-68
2022/04/27 17:16:49;;;;;;;16.63;3.83;;;;;;;;;;5072922;28;20051;-68
2022/04/27 17:19:53;;;;;;;12.50;3.53;;;;;;;;;;5073666;28;20047;-68
2022/04/27 17:22:58;;;;;;;19.85;5.85;;;;;;;;;;5073218;28;20051;-68
2022/04/27 17:29:25;;;;;;;14.80;3.60;;;;;;;;;;5073166;28;20043;-68
2022/04/27 17:32:31;;;;;;;18.27;5.05;;;;;;;;;;5072923;28;20051;-68
2022/04/27 17:35:35;;;;;;;14.07;4.35;;;;;;;;;;5072875;28;20107;-68
2022/04/27 17:38:40;;;;;;;11.88;3.25;;;;;;;;;;5072650;28;20150;-68
2022/04/27 17:41:44;;;;;;;9.25;3.38;;;;;;;;;;5072492;28;20043;-68
2022/04/27 17:44:48;;;;;;;14.27;4.70;;;;;;;;;;5072337;28;20041;-68
2022/04/27 17:47:55;;;;;;;17.75;7.03;;;;;;;;;;5071730;28;20048;-68
2022/04/27 17:50:59;;;;;;;21.38;5.70;;;;;;;;;;5072876;28;20048;-68
2022/04/27 17:54:04;;;;;;;33.42;8.20;;;;;;;;;;5072846;28;20059;-68
2022/04/27 17:57:08;;;;;;;15.20;5.05;;;;;;;;;;5072534;28;20047;-68
2022/04/27 18:00:14;;;;;;;17.35;5.38;;;;;;;;;;5072658;28;20511;-68
2022/04/27 18:03:18;;;;;;;11.75;3.50;;;;;;;;;;5072851;28;20052;-68
2022/04/27 18:06:22;;;;;;;14.38;3.65;;;;;;;;;;5072290;28;20479;-68
2022/04/27 18:09:29;;;;;;;13.60;3.17;;;;;;;;;;5072627;28;20059;-68
2022/04/27 18:12:34;;;;;;;8.93;3.35;;;;;;;;;;5071510;28;20063;-68
2022/04/27 18:15:47;;;;;;;13.95;3.38;;;;;;;;;;5072647;28;20040;-68
2022/04/27 18:18:51;;;;;;;9.60;3.17;;;;;;;;;;5072116;28;20051;-68
2022/04/27 18:21:59;;;;;;;13.32;3.20;;;;;;;;;;5072197;28;20041;-68
2022/04/27 18:25:04;;;;;;;14.82;3.85;;;;;;;;;;5072577;28;20055;-68
2022/04/27 18:28:10;;;;;;;11.70;3.75;;;;;;;;;;5072362;28;20049;-68
2022/04/27 18:31:18;;;;;;;15.27;3.88;;;;;;;;;;5072566;28;20044;-68
2022/04/27 18:34:22;;;;;;;16.65;5.45;;;;;;;;;;5071988;28;20071;-68
2022/04/27 18:37:27;;;;;;;11.75;4.13;;;;;;;;;;5071990;28;20059;-68
2022/04/27 18:40:33;;;;;;;13.52;4.80;;;;;;;;;;5072074;28;20507;-69
2022/04/27 18:50:23;;;;;;;22.85;5.10;;;;;;;;;;5072020;28;20401;-68
2022/04/27 18:53:32;;;;;;;10.45;4.05;;;;;;;;;;5070899;28;20211;-68
2022/04/27 18:56:36;;;;;;;19.27;5.70;;;;;;;;;;5072059;28;20051;-69
2022/04/27 18:59:41;;;;;;;12.52;5.30;;;;;;;;;;5070614;28;20047;-68
2022/04/27 19:02:46;;;;;;;10.82;3.70;;;;;;;;;;5071758;28;20040;-68
2022/04/27 19:05:50;;;;;;;11.90;3.80;;;;;;;;;;5071468;28;20047;-68
2022/04/27 19:08:54;;;;;;;13.25;4.97;;;;;;;;;;5071334;28;20499;-67